Pickle Lake Airport
CYPL : now visible

Airfield :











YOU CAN JOIN US ON...

 
LOGIN :

Register | Disclaimer

   EN    FR    IT 

 









Legend :    VFR   Marginal VFR   IFR   Intensive IFR   Very Intensive IFR
Visi :
Ceiling :
>= 8 km
>= 3000ft
5 to 8 km
1000 to 3000 ft
1500m to 5 km
500 to 1000 ft
800 to 1500m
200 to 500 ft
< 800m
< 200 ft
Symbols :   Thunderstorms  Fog  Heavy snow  Heavy precipitations  Wind > 20 kt






- Airport Elevation : 1267 ft
- IATA code : YPL


CYPL - Pickle Lake

CURRENT METAR :
  • 210535Z AUTO 33006KT 280V010 4SM -SN OVC038 M10/M11 A2912 RMK SLP892

EXPIRED METARs :
  • 210510Z AUTO 31006KT 270V340 6SM -SN OVC055 M09/M11 A2911 RMK SLP888
  • 210506Z AUTO 31006KT 5SM -SN OVC049 M09/M11 A2911 RMK SLP887
  • 210441Z AUTO 31005KT 250V350 6SM -SN OVC049 M10/M11 A2908 RMK SLP882
  • 210422Z AUTO 31004KT 280V350 3SM -SN OVC043 M10/M11 A2907 RMK SLP878
  • 210403Z AUTO 32003KT 290V360 2 1/4SM -SN OVC033 M10/M11 A2906 RMK SLP875
  • 210334Z AUTO VRB02KT 2SM -SN OVC029 M10/M11 A2905 RMK SLP872
  • 210329Z AUTO 33003KT 290V050 2 1/4SM -SN OVC029 M10/M11 A2905 RMK SLP872
  • 210320Z AUTO 00000KT 1 1/4SM -SN OVC025 M10/M11 A2905 RMK SLP870
  • 210303Z AUTO VRB02KT 1 1/4SM -SN OVC023 M09/M11 A2905 RMK SLP869

TAF TAF CYPL
Valid from the 21 at 02:00 until the 21 at 14:00 UTC


210138Z 2102/2114 VRB03KT 1SM -SN OVC015
TEMPO 2102/2108 6SM -SN OVC025
BECMG 2105/2107 30010KT RMK FCST BASED ON AUTO OBS. NXT FCST BY 210800Z
CZWG FIR / North America



MET'MAP, your aeronautical weather chart ! - Copyright ORBIFLY December 2007 - Disclaimer

ORBIFLY MET'MAP TEAM :

Programming & Development : Alexandra Zaïnal
Concept & original design : Baudouin d'Aumeries
Assistance for programming : Marc-Olivier Méhu
Technical & hardware support : Manuel Goepfert

Contact : metmap@orbifly.com




SOURCES & CREDITS :

   NOAA       Earth
Advisory